Akutan, Alaska
Current Conditions -  °F | °C
As of 1:55 PM on Wednesday 22 Oct 2014 (Local Time) from PAUT Reporting Station
Overcast Overcast  
Wind Chill: -1°   Ceiling: 3500
Heat Index:   Visibility: 10mi
Dew Point:   Wind: 26mph
Humidity: 67%   Direction: 330°NNW
Pressure: 29.98"   Gusts: 36mph
Location:  54.14°N, 165.77°W
Report Text: PAUT 222155Z AUTO 33023G31KT 10SM OVC035 05/00 A2998 RMK AO2 T00521004
Loading
Personal Weather Stations






























Interactive Weather Map
Tropical Storm Tracking
New forecast layout! Learn more

10-Day Weather Forecast

Advertisements
Track Severe Weather on mobile